Time;durP1;ratioP1;P1;durP2;ratioP2;P2;SDS_P1;SDS_P2;PMS_P1;PMS_P2;Temp;Humidity;BMP_temperature;BMP_pressure;BME280_temperature;BME280_humidity;BME280_pressure;Samples;Min_cycle;Max_cycle;Signal;HPM_P1;HPM_P2
2022/06/08 00:01:31;;;;;;;6.45;5.47;;;19.30;99.90;;;;;;5073617;28;20197;-69
2022/06/08 00:04:00;;;;;;;7.13;6.43;;;19.30;99.90;;;;;;5071673;28;20220;-68
2022/06/08 00:06:27;;;;;;;5.80;5.30;;;19.30;99.90;;;;;;5069551;28;20231;-69
2022/06/08 00:08:54;;;;;;;7.18;6.47;;;19.20;99.90;;;;;;5062855;28;20209;-68
2022/06/08 00:11:21;;;;;;;7.05;6.43;;;19.10;99.90;;;;;;5073484;28;20216;-68
2022/06/08 00:13:49;;;;;;;6.45;5.85;;;19.00;99.90;;;;;;5072998;28;20205;-68
2022/06/08 00:16:16;;;;;;;6.93;6.00;;;19.00;99.90;;;;;;5077544;28;20263;-68
2022/06/08 00:18:44;;;;;;;6.88;6.28;;;19.00;99.90;;;;;;5063745;28;20217;-69
2022/06/08 00:21:13;;;;;;;6.85;6.15;;;19.00;99.90;;;;;;5074312;28;20658;-69
2022/06/08 00:23:41;;;;;;;6.45;5.85;;;18.90;99.90;;;;;;5074049;28;20209;-69
2022/06/08 00:26:09;;;;;;;6.90;6.30;;;18.90;99.90;;;;;;5071818;28;20657;-69
2022/06/08 00:28:36;;;;;;;7.32;6.63;;;18.90;99.90;;;;;;5066215;28;20221;-68
2022/06/08 00:31:04;;;;;;;7.45;6.78;;;18.90;99.90;;;;;;5073284;28;20217;-68
2022/06/08 00:33:31;;;;;;;7.70;7.00;;;18.90;99.90;;;;;;5064119;28;20214;-68
2022/06/08 00:35:57;;;;;;;7.18;6.47;;;18.80;99.90;;;;;;5071793;28;20233;-68
2022/06/08 00:38:24;;;;;;;7.13;6.47;;;18.80;99.90;;;;;;5071081;28;20645;-68
2022/06/08 00:41:01;;;;;;;7.22;6.57;;;18.70;99.90;;;;;;5073367;28;20237;-69
2022/06/08 00:43:28;;;;;;;7.13;6.43;;;18.80;99.90;;;;;;5073483;28;20208;-69
2022/06/08 00:45:55;;;;;;;8.05;7.35;;;18.80;99.90;;;;;;5072468;28;20209;-68
2022/06/08 00:48:26;;;;;;;9.00;8.20;;;18.70;99.90;;;;;;5068333;28;20205;-68
2022/06/08 00:50:55;;;;;;;10.50;8.15;;;18.70;99.90;;;;;;5072302;28;20220;-69
2022/06/08 00:53:28;;;;;;;9.95;8.10;;;18.70;99.90;;;;;;5071751;28;20206;-68
2022/06/08 00:55:56;;;;;;;9.30;7.50;;;18.70;99.90;;;;;;5072187;28;20221;-68
2022/06/08 00:58:26;;;;;;;9.88;8.88;;;18.80;99.90;;;;;;5072166;28;20685;-68
2022/06/08 01:00:54;;;;;;;10.55;9.55;;;18.80;99.90;;;;;;5072689;28;20216;-68
2022/06/08 01:03:22;;;;;;;13.55;9.95;;;18.80;99.90;;;;;;5072612;28;20213;-69
2022/06/08 01:05:56;;;;;;;10.43;9.43;;;18.70;99.90;;;;;;5072323;28;20288;-70
2022/06/08 01:08:28;;;;;;;11.07;9.38;;;18.70;99.90;;;;;;5071961;28;20220;-69
2022/06/08 01:10:58;;;;;;;10.93;9.93;;;18.70;99.90;;;;;;5072366;28;20244;-70
2022/06/08 01:13:27;;;;;;;11.57;10.50;;;18.80;99.90;;;;;;5073123;28;20224;-69
2022/06/08 01:15:55;;;;;;;10.88;9.82;;;18.80;99.90;;;;;;5071495;28;20299;-69
2022/06/08 01:18:23;;;;;;;11.85;10.75;;;18.70;99.90;;;;;;5072729;28;20205;-69
2022/06/08 01:20:52;;;;;;;12.48;10.93;;;18.70;99.90;;;;;;5068899;28;20216;-69
2022/06/08 01:23:21;;;;;;;12.07;10.55;;;18.80;99.90;;;;;;5072587;28;20221;-70
2022/06/08 01:26:06;;;;;;;11.98;10.75;;;18.80;99.90;;;;;;5071604;28;20201;-69
2022/06/08 01:28:41;;;;;;;11.90;10.80;;;18.80;99.90;;;;;;5070341;28;20665;-69
2022/06/08 01:31:17;;;;;;;11.60;10.40;;;18.80;99.90;;;;;;5070769;28;20201;-69
2022/06/08 01:34:04;;;;;;;12.43;10.23;;;18.80;99.90;;;;;;5063958;28;20221;-69
2022/06/08 01:36:53;;;;;;;11.93;10.73;;;18.90;99.90;;;;;;5071622;28;20213;-70
2022/06/08 01:39:30;;;;;;;12.02;10.82;;;18.90;99.90;;;;;;5072376;28;20221;-69
2022/06/08 01:42:20;;;;;;;11.55;9.57;;;18.80;99.90;;;;;;5072510;28;20678;-69
2022/06/08 01:48:02;;;;;;;14.02;11.35;;;18.90;99.90;;;;;;5073751;28;20332;-70
2022/06/08 01:50:38;;;;;;;12.85;11.13;;;18.90;99.90;;;;;;5075029;28;20201;-69
2022/06/08 01:53:11;;;;;;;12.38;11.18;;;18.80;99.90;;;;;;5076481;28;20207;-69
2022/06/08 01:55:48;;;;;;;13.50;11.40;;;18.80;99.90;;;;;;5074039;28;20232;-69
2022/06/08 01:58:22;;;;;;;12.38;11.10;;;18.70;99.90;;;;;;5069594;28;20223;-69
2022/06/08 02:00:56;;;;;;;12.90;11.60;;;18.70;99.90;;;;;;5076044;28;20199;-70
2022/06/08 02:03:27;;;;;;;12.48;11.20;;;18.80;99.90;;;;;;5075231;28;20282;-69
2022/06/08 02:05:59;;;;;;;15.35;11.73;;;18.70;99.90;;;;;;5075203;28;20211;-69
2022/06/08 02:08:35;;;;;;;12.50;11.20;;;18.80;99.90;;;;;;5075148;28;20205;-69
2022/06/08 02:11:11;;;;;;;15.27;11.75;;;18.80;99.90;;;;;;5074424;28;20583;-69
2022/06/08 02:13:42;;;;;;;12.73;11.50;;;18.80;99.90;;;;;;5076081;28;20565;-69
2022/06/08 02:16:15;;;;;;;12.45;11.25;;;18.80;99.90;;;;;;5065013;28;20628;-70
2022/06/08 02:18:46;;;;;;;12.93;11.23;;;18.80;99.90;;;;;;5068461;28;20209;-69
2022/06/08 02:21:17;;;;;;;12.38;10.90;;;18.80;99.90;;;;;;5069216;28;20263;-69
2022/06/08 02:23:48;;;;;;;14.07;11.25;;;18.80;99.90;;;;;;5061379;28;20272;-69
2022/06/08 02:26:21;;;;;;;12.15;10.55;;;18.80;99.90;;;;;;5071313;28;20194;-70
2022/06/08 02:28:53;;;;;;;12.35;11.00;;;18.80;99.90;;;;;;5067613;28;20236;-69
2022/06/08 02:31:22;;;;;;;11.57;10.48;;;18.80;99.90;;;;;;5075119;28;20204;-69
2022/06/08 02:36:53;;;;;;;11.93;10.73;;;18.80;99.90;;;;;;5073188;28;20305;-69
2022/06/08 02:39:27;;;;;;;11.30;10.20;;;18.90;99.90;;;;;;5068890;28;20224;-70
2022/06/08 02:42:01;;;;;;;11.15;10.05;;;18.90;99.90;;;;;;5074826;28;20278;-70
2022/06/08 02:44:30;;;;;;;12.40;11.07;;;18.90;99.90;;;;;;5065526;28;20208;-69
2022/06/08 02:47:04;;;;;;;11.60;10.45;;;18.80;99.90;;;;;;5074098;28;20546;-70
2022/06/08 02:49:33;;;;;;;12.55;11.18;;;18.80;99.90;;;;;;5074379;28;20228;-69
2022/06/08 02:52:07;;;;;;;12.45;11.15;;;18.80;99.90;;;;;;5075315;28;20204;-70
2022/06/08 02:54:33;;;;;;;12.48;11.20;;;18.90;99.90;;;;;;5075048;28;20660;-70
2022/06/08 02:57:10;;;;;;;12.05;10.80;;;18.90;99.90;;;;;;5072367;28;20232;-69
2022/06/08 02:59:44;;;;;;;14.02;10.82;;;18.90;99.90;;;;;;5073897;28;20225;-69
2022/06/08 03:02:15;;;;;;;12.02;10.77;;;18.90;99.90;;;;;;5073797;28;20672;-68
2022/06/08 03:04:49;;;;;;;12.65;11.35;;;18.90;99.90;;;;;;5074162;28;20210;-69
2022/06/08 03:07:19;;;;;;;11.60;10.20;;;18.90;99.90;;;;;;5072162;28;20205;-69
2022/06/08 03:09:48;;;;;;;11.82;10.63;;;18.90;99.90;;;;;;5073076;28;20243;-69
2022/06/08 03:12:23;;;;;;;13.50;11.13;;;18.80;99.90;;;;;;5075331;28;20208;-69
2022/06/08 03:14:50;;;;;;;12.57;11.27;;;18.90;99.90;;;;;;5061374;28;20193;-69
2022/06/08 03:17:18;;;;;;;13.23;11.82;;;18.90;99.90;;;;;;5072561;28;20240;-70
2022/06/08 03:19:45;;;;;;;13.25;11.43;;;18.80;99.90;;;;;;5073027;28;20205;-69
2022/06/08 03:22:14;;;;;;;13.40;11.35;;;18.80;99.90;;;;;;5073694;28;20225;-69
2022/06/08 03:24:42;;;;;;;14.18;12.65;;;18.70;99.90;;;;;;5073763;28;20292;-70
2022/06/08 03:27:09;;;;;;;14.82;13.32;;;18.70;99.90;;;;;;5060426;28;20197;-69
2022/06/08 03:29:38;;;;;;;14.35;12.10;;;18.70;99.90;;;;;;5072474;28;20679;-69
2022/06/08 03:32:06;;;;;;;14.25;12.85;;;18.70;99.90;;;;;;5072813;28;20260;-69
2022/06/08 03:34:33;;;;;;;18.25;14.02;;;18.70;99.90;;;;;;5074195;28;20585;-69
2022/06/08 03:36:59;;;;;;;17.25;14.05;;;18.70;99.90;;;;;;5073340;28;20213;-70
2022/06/08 03:39:27;;;;;;;16.52;14.82;;;18.80;99.90;;;;;;5074177;28;20209;-70
2022/06/08 03:41:54;;;;;;;16.73;14.85;;;18.80;99.90;;;;;;5070572;28;20205;-70
2022/06/08 03:44:20;;;;;;;15.93;14.27;;;18.90;99.90;;;;;;5074574;28;20554;-71
2022/06/08 03:46:52;;;;;;;16.08;14.43;;;19.00;99.90;;;;;;5062067;28;20216;-70
2022/06/08 03:49:22;;;;;;;16.65;14.65;;;19.00;99.90;;;;;;5074099;28;20201;-71
2022/06/08 03:51:50;;;;;;;14.30;12.90;;;19.10;99.90;;;;;;5072201;28;20209;-70
2022/06/08 03:54:20;;;;;;;15.98;13.25;;;19.20;99.90;;;;;;5073572;28;20205;-69
2022/06/08 03:56:50;;;;;;;14.90;13.20;;;19.30;99.90;;;;;;5071671;28;20669;-69
2022/06/08 03:59:18;;;;;;;14.32;11.95;;;19.40;99.90;;;;;;5073348;28;20197;-70
2022/06/08 04:01:45;;;;;;;13.55;11.73;;;19.40;99.90;;;;;;5072665;28;20205;-70
2022/06/08 04:04:14;;;;;;;13.82;11.48;;;19.50;99.90;;;;;;5073295;28;20205;-69
2022/06/08 04:06:40;;;;;;;13.05;11.00;;;19.50;99.90;;;;;;5071235;28;20205;-68
2022/06/08 04:09:07;;;;;;;11.30;10.10;;;19.60;99.90;;;;;;5073447;28;20201;-69
2022/06/08 04:11:34;;;;;;;11.75;10.55;;;19.50;99.90;;;;;;5068545;28;20205;-69
2022/06/08 04:14:02;;;;;;;12.07;9.85;;;19.60;99.90;;;;;;5073019;28;20219;-71
2022/06/08 04:16:30;;;;;;;11.15;10.10;;;19.60;99.90;;;;;;5071916;28;20264;-70
2022/06/08 04:18:56;;;;;;;11.10;10.00;;;19.70;99.90;;;;;;5064109;28;20217;-70
2022/06/08 04:21:25;;;;;;;9.73;8.82;;;19.70;99.90;;;;;;5067236;28;20670;-70
2022/06/08 04:23:53;;;;;;;9.52;8.52;;;19.80;99.90;;;;;;5065674;28;20244;-70
2022/06/08 04:26:21;;;;;;;10.02;9.13;;;19.80;99.90;;;;;;5060763;28;20198;-69
2022/06/08 04:28:48;;;;;;;9.32;8.27;;;19.90;99.90;;;;;;5071909;28;20229;-69
2022/06/08 04:31:15;;;;;;;9.60;8.60;;;19.90;99.90;;;;;;5072159;28;20209;-69
2022/06/08 04:33:42;;;;;;;9.18;8.20;;;19.90;99.90;;;;;;5073473;28;20208;-69
2022/06/08 04:36:10;;;;;;;9.48;8.57;;;19.90;99.90;;;;;;5072406;28;20563;-69
2022/06/08 04:38:38;;;;;;;9.27;8.35;;;20.00;99.90;;;;;;5072487;28;20876;-69
2022/06/08 04:41:06;;;;;;;9.50;8.50;;;20.00;99.90;;;;;;5071309;28;20209;-69
2022/06/08 04:43:33;;;;;;;8.65;7.85;;;20.00;99.90;;;;;;5072490;28;20541;-70
2022/06/08 04:46:00;;;;;;;9.32;8.32;;;20.00;99.90;;;;;;5071474;28;20209;-70
2022/06/08 04:48:27;;;;;;;8.95;8.07;;;20.00;99.90;;;;;;5073333;28;20209;-69
2022/06/08 04:50:54;;;;;;;8.40;7.60;;;20.10;99.90;;;;;;5073412;28;20270;-70
2022/06/08 04:53:21;;;;;;;8.40;7.60;;;20.10;99.90;;;;;;5071950;28;20577;-71
2022/06/08 04:55:49;;;;;;;8.52;7.68;;;20.10;99.90;;;;;;5068520;28;20204;-70
2022/06/08 04:58:17;;;;;;;8.35;7.45;;;20.10;99.90;;;;;;5072970;28;20221;-70
2022/06/08 05:00:43;;;;;;;8.90;8.00;;;20.10;99.90;;;;;;5068878;28;20270;-70
2022/06/08 05:03:11;;;;;;;9.70;8.38;;;20.20;99.90;;;;;;5070910;28;20596;-69
2022/06/08 05:05:40;;;;;;;9.73;8.73;;;20.20;99.90;;;;;;5072731;28;20224;-69
2022/06/08 05:08:08;;;;;;;10.52;8.75;;;20.10;99.90;;;;;;5073325;28;20205;-70
2022/06/08 05:10:36;;;;;;;9.85;8.85;;;20.00;99.90;;;;;;5073901;28;20213;-70
2022/06/08 05:13:05;;;;;;;8.43;7.55;;;20.00;99.90;;;;;;5071957;28;20691;-70
2022/06/08 05:15:34;;;;;;;8.48;7.65;;;20.00;99.90;;;;;;5071531;28;20316;-70
2022/06/08 05:18:01;;;;;;;9.73;7.55;;;19.90;99.90;;;;;;5067571;28;20224;-71
2022/06/08 05:20:29;;;;;;;9.25;8.18;;;19.90;99.90;;;;;;5086337;28;20208;-70
2022/06/08 05:22:57;;;;;;;8.55;7.63;;;19.90;99.90;;;;;;5088588;28;20873;-69
2022/06/08 05:25:27;;;;;;;15.07;7.78;;;20.00;99.90;;;;;;5067276;28;20204;-70
2022/06/08 05:27:54;;;;;;;8.90;8.00;;;20.00;99.90;;;;;;5063996;28;20209;-70
2022/06/08 05:30:22;;;;;;;9.98;7.70;;;20.00;99.90;;;;;;5065955;28;20225;-75
2022/06/08 05:32:49;;;;;;;9.20;7.63;;;20.00;99.90;;;;;;5071596;28;20209;-73
2022/06/08 05:35:16;;;;;;;9.20;8.32;;;20.00;99.90;;;;;;5088098;28;20215;-78
2022/06/08 05:37:43;;;;;;;9.60;8.68;;;20.00;99.90;;;;;;5066100;28;20217;-73
2022/06/08 05:40:12;;;;;;;9.68;7.57;;;20.00;99.90;;;;;;5079639;28;20201;-72
2022/06/08 05:42:39;;;;;;;8.00;7.25;;;20.00;99.90;;;;;;5087402;28;20201;-72
2022/06/08 05:45:08;;;;;;;8.88;7.93;;;20.00;99.90;;;;;;5085984;28;20211;-73
2022/06/08 05:47:36;;;;;;;8.70;7.80;;;20.20;99.90;;;;;;5084505;28;20591;-73
2022/06/08 05:50:04;;;;;;;12.45;8.70;;;20.40;99.90;;;;;;5081566;28;20255;-71
2022/06/08 05:52:31;;;;;;;9.98;7.75;;;20.60;99.90;;;;;;5079040;28;20217;-71
2022/06/08 05:54:59;;;;;;;8.23;7.43;;;20.80;99.90;;;;;;5075162;28;20201;-71
2022/06/08 05:57:25;;;;;;;8.10;6.15;;;21.00;99.90;;;;;;5077396;28;20323;-72
2022/06/08 05:59:52;;;;;;;7.38;5.82;;;21.20;99.90;;;;;;5073446;28;20216;-72
2022/06/08 06:02:19;;;;;;;7.15;6.45;;;21.40;99.90;;;;;;5074699;28;20197;-72
2022/06/08 06:04:47;;;;;;;6.13;5.60;;;21.60;99.90;;;;;;5077055;28;20212;-72
2022/06/08 06:07:15;;;;;;;7.72;6.00;;;21.70;99.90;;;;;;5072164;28;20563;-71
2022/06/08 06:09:42;;;;;;;6.32;5.72;;;21.80;99.90;;;;;;5076109;28;20304;-71
2022/06/08 06:12:10;;;;;;;5.13;4.55;;;21.80;99.90;;;;;;5075688;28;20213;-71
2022/06/08 06:14:37;;;;;;;4.47;4.07;;;21.80;99.90;;;;;;5076565;28;20268;-72
2022/06/08 06:17:05;;;;;;;5.00;4.03;;;21.80;99.90;;;;;;5076349;28;20237;-70
2022/06/08 06:19:32;;;;;;;4.97;4.55;;;21.80;99.90;;;;;;5074002;28;20202;-71
2022/06/08 06:22:01;;;;;;;6.10;5.20;;;21.80;99.90;;;;;;5073919;28;20258;-71
2022/06/08 06:24:28;;;;;;;6.03;4.05;;;21.80;99.90;;;;;;5074057;28;20220;-71
2022/06/08 06:26:55;;;;;;;5.45;4.10;;;21.90;99.90;;;;;;5075049;28;20683;-70
2022/06/08 06:29:22;;;;;;;5.63;4.22;;;21.80;99.90;;;;;;5075152;28;20221;-70
2022/06/08 06:31:52;;;;;;;6.20;4.88;;;21.90;99.90;;;;;;5069200;28;20217;-69
2022/06/08 06:34:22;;;;;;;8.00;4.55;;;21.80;99.90;;;;;;5071606;28;20731;-71
2022/06/08 06:36:49;;;;;;;5.25;4.78;;;21.80;99.90;;;;;;5060796;28;20560;-72
2022/06/08 06:39:17;;;;;;;5.60;4.13;;;21.70;99.90;;;;;;5067459;28;20241;-71
2022/06/08 06:41:46;;;;;;;5.57;4.22;;;21.70;99.90;;;;;;5070148;28;20206;-72
2022/06/08 06:44:13;;;;;;;5.93;4.28;;;21.70;99.90;;;;;;5055803;28;20267;-70
2022/06/08 06:46:39;;;;;;;5.35;4.38;;;21.70;99.90;;;;;;5062099;28;20210;-72
2022/06/08 06:49:07;;;;;;;5.90;4.18;;;21.70;99.90;;;;;;5072157;28;20666;-71
2022/06/08 06:51:35;;;;;;;4.05;3.60;;;21.70;99.90;;;;;;5072511;28;20216;-71
2022/06/08 06:54:01;;;;;;;5.22;4.10;;;21.60;99.90;;;;;;5066994;28;20205;-71
2022/06/08 06:56:29;;;;;;;6.97;3.50;;;21.50;99.90;;;;;;5065897;28;20225;-70
2022/06/08 06:58:56;;;;;;;4.28;2.65;;;21.50;99.90;;;;;;5066274;28;20245;-72
2022/06/08 07:01:23;;;;;;;3.40;2.33;;;21.50;99.90;;;;;;5073390;28;20215;-71
2022/06/08 07:03:50;;;;;;;2.65;2.35;;;21.50;99.90;;;;;;5074136;28;20215;-75
2022/06/08 07:06:17;;;;;;;4.60;2.92;;;21.50;99.90;;;;;;5070711;28;20654;-70
2022/06/08 07:08:44;;;;;;;3.35;2.45;;;21.50;99.90;;;;;;5067267;28;20571;-69
2022/06/08 07:13:59;;;;;;;2.92;2.63;;;21.60;99.90;;;;;;5073364;28;20723;-70
2022/06/08 07:16:26;;;;;;;3.45;3.00;;;21.60;99.90;;;;;;5068005;28;20270;-70
2022/06/08 07:18:53;;;;;;;7.10;4.10;;;21.70;99.90;;;;;;5074127;28;20636;-69
2022/06/08 07:21:20;;;;;;;4.38;3.08;;;21.80;99.90;;;;;;5063156;28;20206;-68
2022/06/08 07:23:47;;;;;;;3.58;2.88;;;21.90;99.90;;;;;;5074234;28;20722;-69
2022/06/08 07:26:14;;;;;;;3.10;2.80;;;21.90;99.90;;;;;;5070486;28;20212;-69
2022/06/08 07:28:42;;;;;;;4.38;2.80;;;21.90;99.90;;;;;;5071451;28;20236;-69
2022/06/08 07:31:11;;;;;;;4.20;3.40;;;22.00;99.90;;;;;;5073961;28;20576;-68
2022/06/08 07:33:38;;;;;;;3.47;3.17;;;22.00;99.90;;;;;;5071512;28;20296;-71
2022/06/08 07:36:06;;;;;;;4.13;3.10;;;22.00;99.90;;;;;;5073353;28;20223;-69
2022/06/08 07:38:33;;;;;;;5.22;3.97;;;21.90;99.90;;;;;;5072190;28;20232;-69
2022/06/08 07:41:00;;;;;;;6.13;4.00;;;21.90;99.90;;;;;;5073909;28;20205;-69
2022/06/08 07:43:27;;;;;;;4.47;3.88;;;21.90;99.90;;;;;;5071975;28;20233;-73
2022/06/08 07:45:54;;;;;;;4.80;3.83;;;21.90;99.90;;;;;;5067336;28;20597;-71
2022/06/08 07:51:07;;;;;;;4.30;3.90;;;21.90;99.90;;;;;;5068874;28;20212;-72
2022/06/08 07:53:34;;;;;;;5.80;3.85;;;21.80;99.90;;;;;;5072959;28;20228;-69
2022/06/08 07:56:01;;;;;;;4.78;4.28;;;21.70;99.90;;;;;;5062565;28;20263;-69
2022/06/08 07:58:28;;;;;;;4.30;3.90;;;21.70;99.90;;;;;;5071820;28;20640;-69
2022/06/08 08:00:57;;;;;;;4.30;3.90;;;21.60;99.90;;;;;;5072911;28;20220;-68
2022/06/08 08:03:26;;;;;;;6.05;4.38;;;21.50;99.90;;;;;;5072046;28;20216;-68
2022/06/08 08:05:53;;;;;;;6.15;5.25;;;21.50;99.90;;;;;;5072700;28;20669;-67
2022/06/08 08:08:20;;;;;;;6.65;4.78;;;21.70;99.90;;;;;;5071652;28;20599;-68
2022/06/08 08:10:47;;;;;;;5.18;4.68;;;21.70;99.90;;;;;;5072074;28;20676;-68
2022/06/08 08:13:15;;;;;;;6.32;5.45;;;21.90;99.90;;;;;;5076505;28;20207;-68
2022/06/08 08:15:43;;;;;;;5.95;5.25;;;22.00;99.90;;;;;;5080461;28;20233;-68
2022/06/08 08:18:12;;;;;;;5.78;4.80;;;22.10;99.90;;;;;;5082565;28;20294;-68
2022/06/08 08:20:41;;;;;;;5.35;4.82;;;22.40;99.90;;;;;;5064135;28;20235;-70
2022/06/08 08:23:07;;;;;;;5.47;5.00;;;22.50;99.90;;;;;;5080298;28;20204;-68
2022/06/08 08:25:35;;;;;;;6.63;5.88;;;22.60;99.90;;;;;;5079971;28;20208;-69
2022/06/08 08:28:02;;;;;;;7.00;5.50;;;22.70;99.90;;;;;;5077633;28;20202;-69
2022/06/08 08:30:31;;;;;;;6.38;5.57;;;22.80;99.90;;;;;;5072485;28;20270;-68
2022/06/08 08:32:58;;;;;;;7.20;6.00;;;22.90;99.90;;;;;;5083608;28;20301;-68
2022/06/08 08:35:25;;;;;;;9.38;6.20;;;23.10;99.90;;;;;;5081813;28;20613;-69
2022/06/08 08:37:54;;;;;;;6.50;5.88;;;23.20;99.90;;;;;;5089333;28;20205;-68
2022/06/08 08:40:30;;;;;;;7.43;6.05;;;23.30;99.90;;;;;;5070844;28;20298;-69
2022/06/08 08:42:58;;;;;;;6.65;5.95;;;23.50;99.90;;;;;;5072000;28;20197;-68
2022/06/08 08:45:25;;;;;;;6.28;5.70;;;23.70;99.90;;;;;;5071381;28;20669;-71
2022/06/08 08:48:01;;;;;;;6.55;5.93;;;23.80;99.90;;;;;;5063613;28;20662;-69
2022/06/08 08:50:34;;;;;;;6.55;5.90;;;23.80;99.90;;;;;;5071051;28;20216;-69
2022/06/08 08:53:10;;;;;;;7.20;6.10;;;23.90;99.90;;;;;;5072418;28;20201;-68
2022/06/08 08:55:44;;;;;;;7.72;6.82;;;24.00;99.90;;;;;;5072476;28;20212;-68
2022/06/08 08:58:15;;;;;;;7.28;6.55;;;23.90;99.90;;;;;;5079586;28;20216;-68
2022/06/08 09:00:43;;;;;;;6.50;5.88;;;23.90;99.90;;;;;;5082579;28;20242;-68
2022/06/08 09:03:27;;;;;;;6.20;5.65;;;24.00;99.90;;;;;;5070075;28;20202;-67
2022/06/08 09:05:56;;;;;;;8.00;5.78;;;24.10;99.90;;;;;;5071134;28;20650;-67
2022/06/08 09:08:25;;;;;;;7.18;5.90;;;24.30;99.90;;;;;;5076374;28;20705;-67
2022/06/08 09:10:56;;;;;;;7.05;5.15;;;24.30;99.90;;;;;;5080329;28;20262;-68
2022/06/08 09:13:30;;;;;;;7.00;6.30;;;24.40;99.90;;;;;;5076538;28;20203;-68
2022/06/08 09:15:59;;;;;;;7.55;6.90;;;24.40;99.90;;;;;;5071658;28;20247;-67
2022/06/08 09:18:35;;;;;;;8.35;7.10;;;24.50;99.90;;;;;;5082785;28;20252;-68
2022/06/08 09:21:24;;;;;;;8.85;6.60;;;24.60;99.90;;;;;;5071508;28;20680;-68
2022/06/08 09:23:54;;;;;;;10.60;7.55;;;24.60;99.90;;;;;;5076760;28;20201;-68
2022/06/08 09:26:32;;;;;;;9.13;6.80;;;24.70;99.90;;;;;;5076137;28;20715;-69
2022/06/08 09:29:03;;;;;;;10.40;7.18;;;24.70;99.90;;;;;;5073100;28;20224;-69
2022/06/08 09:31:33;;;;;;;10.63;7.03;;;24.80;99.90;;;;;;5082530;28;20278;-69
2022/06/08 09:34:14;;;;;;;7.57;6.20;;;24.90;99.90;;;;;;5072096;28;20581;-69
2022/06/08 09:36:42;;;;;;;7.38;5.65;;;25.00;99.90;;;;;;5068511;28;20621;-70
2022/06/08 09:39:14;;;;;;;6.43;5.88;;;25.00;99.90;;;;;;5067513;28;20236;-70
2022/06/08 09:41:48;;;;;;;15.80;9.30;;;25.00;99.90;;;;;;5066584;28;20575;-69
2022/06/08 09:44:24;;;;;;;7.57;6.82;;;25.00;99.90;;;;;;5072976;28;20193;-69
2022/06/08 09:52:55;;;;;;;6.65;6.05;;;25.10;99.90;;;;;;5076442;28;20280;-69
2022/06/08 09:55:39;;;;;;;6.07;5.40;;;25.40;99.90;;;;;;5071315;28;20205;-68
2022/06/08 09:58:20;;;;;;;6.60;6.00;;;25.80;99.90;;;;;;5060579;28;20207;-68
2022/06/08 10:00:53;;;;;;;6.28;5.68;;;26.10;99.90;;;;;;5070647;28;20583;-69
2022/06/08 10:03:44;;;;;;;8.45;5.75;;;26.30;99.90;;;;;;5070264;28;20202;-69
2022/06/08 10:06:25;;;;;;;6.57;5.15;;;26.40;99.90;;;;;;5074727;28;20246;-67
2022/06/08 10:09:01;;;;;;;7.28;6.50;;;26.30;99.90;;;;;;5067064;28;20200;-67
2022/06/08 10:11:38;;;;;;;6.00;5.50;;;26.30;99.90;;;;;;5081437;28;20207;-67
2022/06/08 10:14:15;;;;;;;5.68;5.18;;;26.20;99.90;;;;;;5073945;28;20200;-68
2022/06/08 10:16:47;;;;;;;6.47;5.43;;;26.10;99.90;;;;;;5073649;28;20240;-73
2022/06/08 10:19:20;;;;;;;7.05;6.35;;;26.10;99.90;;;;;;5070447;28;20214;-71
2022/06/08 10:21:50;;;;;;;6.45;5.82;;;26.10;99.90;;;;;;5073029;28;20221;-70
2022/06/08 10:24:21;;;;;;;5.68;5.18;;;26.20;99.90;;;;;;5074727;28;20224;-70
2022/06/08 10:26:56;;;;;;;6.00;5.50;;;26.30;99.90;;;;;;5071190;28;20288;-73
2022/06/08 10:29:32;;;;;;;5.43;4.93;;;26.50;99.90;;;;;;5066083;28;20224;-70
2022/06/08 10:32:06;;;;;;;5.20;4.70;;;26.70;99.90;;;;;;5070412;28;20201;-70
2022/06/08 10:34:35;;;;;;;5.10;4.70;;;26.80;99.90;;;;;;5063286;28;20552;-70
2022/06/08 10:37:06;;;;;;;4.97;4.57;;;26.80;99.90;;;;;;5068826;28;20221;-69
2022/06/08 10:39:35;;;;;;;4.95;4.40;;;26.70;99.70;;;;;;5067271;28;20229;-69
2022/06/08 10:42:43;;;;;;;5.03;4.55;;;26.60;99.70;;;;;;5066954;28;20296;-69
2022/06/08 10:45:37;;;;;;;5.45;4.95;;;26.60;99.40;;;;;;5072191;28;20208;-70
2022/06/08 10:48:42;;;;;;;5.07;4.63;;;26.60;98.80;;;;;;5070440;28;20611;-69
2022/06/08 10:51:28;;;;;;;4.88;4.47;;;26.60;98.80;;;;;;5064902;28;20201;-69
2022/06/08 10:56:52;;;;;;;5.40;4.68;;;26.60;99.30;;;;;;5067841;28;20204;-70
2022/06/08 10:59:24;;;;;;;5.05;4.55;;;26.70;99.30;;;;;;5074041;28;20559;-71
2022/06/08 11:02:27;;;;;;;6.13;5.53;;;26.80;99.00;;;;;;5073909;28;20219;-70
2022/06/08 11:05:12;;;;;;;5.85;4.88;;;27.00;98.50;;;;;;5071814;28;20224;-70
2022/06/08 11:08:15;;;;;;;5.55;4.88;;;27.00;98.30;;;;;;5074434;28;20197;-70
2022/06/08 11:10:54;;;;;;;5.70;5.20;;;27.20;97.90;;;;;;5072478;28;20205;-69
2022/06/08 11:13:30;;;;;;;6.63;5.85;;;27.40;97.90;;;;;;5073210;28;20204;-70
2022/06/08 11:16:12;;;;;;;5.80;5.20;;;27.40;97.00;;;;;;5072099;28;20704;-70
2022/06/08 11:18:43;;;;;;;5.25;4.70;;;27.40;96.80;;;;;;5073388;28;20201;-70
2022/06/08 11:21:30;;;;;;;5.22;4.72;;;27.40;96.80;;;;;;5075077;28;20220;-69
2022/06/08 11:24:00;;;;;;;5.40;4.40;;;27.60;97.00;;;;;;5062726;28;20198;-69
2022/06/08 11:26:48;;;;;;;4.53;4.13;;;27.80;96.30;;;;;;5070561;28;20297;-70
2022/06/08 11:29:44;;;;;;;6.40;4.60;;;28.00;95.20;;;;;;5069728;28;20231;-70
2022/06/08 11:32:54;;;;;;;5.55;5.03;;;28.10;94.70;;;;;;5079016;28;20213;-70
2022/06/08 11:35:48;;;;;;;6.57;5.82;;;28.10;94.20;;;;;;5071491;28;20208;-69
2022/06/08 11:38:21;;;;;;;5.45;4.32;;;28.10;94.30;;;;;;5066526;28;20204;-70
2022/06/08 11:40:48;;;;;;;4.80;4.40;;;28.00;94.10;;;;;;5073810;28;20227;-70
2022/06/08 11:43:34;;;;;;;11.00;4.43;;;27.90;93.90;;;;;;5072169;28;20205;-69
2022/06/08 11:46:02;;;;;;;5.13;4.60;;;27.80;94.00;;;;;;5079154;28;20201;-69
2022/06/08 11:48:44;;;;;;;5.05;3.83;;;27.60;94.00;;;;;;5089629;28;20216;-70
2022/06/08 11:51:10;;;;;;;4.07;3.70;;;27.50;94.10;;;;;;5082997;28;20249;-71
2022/06/08 11:53:39;;;;;;;4.63;3.20;;;27.60;94.00;;;;;;5071562;28;20212;-69
2022/06/08 11:56:17;;;;;;;5.15;3.88;;;27.60;93.80;;;;;;5072750;28;20205;-70
2022/06/08 11:58:47;;;;;;;4.60;4.20;;;27.70;93.00;;;;;;5072300;28;20236;-69
2022/06/08 12:01:18;;;;;;;7.35;4.40;;;27.80;92.80;;;;;;5073378;28;20562;-69
2022/06/08 12:03:48;;;;;;;4.68;3.90;;;27.60;92.60;;;;;;5079051;28;20205;-69
2022/06/08 12:06:19;;;;;;;7.40;4.50;;;27.40;92.70;;;;;;5079063;28;20229;-69
2022/06/08 12:08:48;;;;;;;4.30;3.90;;;27.10;93.20;;;;;;5073419;28;20201;-70
2022/06/08 12:11:18;;;;;;;4.97;4.28;;;26.80;93.60;;;;;;5071885;28;20201;-69
2022/06/08 12:13:54;;;;;;;4.95;4.45;;;26.60;94.10;;;;;;5081632;28;20646;-69
2022/06/08 12:16:24;;;;;;;8.50;6.13;;;26.40;94.80;;;;;;5082014;28;20254;-69
2022/06/08 12:18:57;;;;;;;5.05;4.55;;;26.00;95.20;;;;;;5084091;28;20748;-69
2022/06/08 12:21:30;;;;;;;6.75;4.68;;;25.80;95.70;;;;;;5076025;28;20572;-69
2022/06/08 12:24:20;;;;;;;6.00;4.75;;;25.60;96.20;;;;;;5061456;28;20205;-70
2022/06/08 12:26:56;;;;;;;4.45;4.05;;;25.40;96.60;;;;;;5072480;28;20201;-69
2022/06/08 12:29:33;;;;;;;4.75;3.97;;;25.20;97.10;;;;;;5064051;28;20305;-69
2022/06/08 12:32:03;;;;;;;5.15;4.47;;;25.20;97.70;;;;;;5071505;28;20564;-70
2022/06/08 12:34:38;;;;;;;5.00;3.78;;;25.00;97.80;;;;;;5073126;28;20209;-70
2022/06/08 12:37:39;;;;;;;4.35;3.95;;;24.90;98.10;;;;;;5073524;28;20231;-70
2022/06/08 12:40:32;;;;;;;4.55;4.15;;;24.80;98.60;;;;;;5004753;28;20223;-71
2022/06/08 12:43:14;;;;;;;4.30;4.00;;;24.60;99.00;;;;;;5002935;28;20195;-69
2022/06/08 12:45:44;;;;;;;4.97;4.22;;;24.50;99.40;;;;;;5064262;28;20476;-69
2022/06/08 12:48:39;;;;;;;4.43;3.95;;;24.40;99.90;;;;;;5089649;28;20224;-69
2022/06/08 12:51:26;;;;;;;4.60;4.20;;;24.30;99.90;;;;;;5069910;28;20547;-70
2022/06/08 12:53:53;;;;;;;4.72;4.25;;;24.20;99.90;;;;;;5083648;28;20539;-70
2022/06/08 12:56:22;;;;;;;4.53;4.13;;;24.20;99.90;;;;;;5072365;28;20548;-70
2022/06/08 12:58:50;;;;;;;4.00;3.70;;;24.10;99.90;;;;;;5070937;28;20233;-71
2022/06/08 13:01:19;;;;;;;5.00;4.22;;;24.10;99.90;;;;;;5070696;28;20271;-71
2022/06/08 13:03:46;;;;;;;4.80;4.40;;;24.10;99.90;;;;;;5061469;28;20209;-71
2022/06/08 13:06:13;;;;;;;4.50;3.97;;;24.00;99.90;;;;;;5064464;28;20216;-71
2022/06/08 13:08:41;;;;;;;4.35;4.00;;;24.00;99.90;;;;;;5073307;28;20262;-71
2022/06/08 13:11:15;;;;;;;4.90;4.50;;;24.00;99.90;;;;;;5079647;28;20661;-71
2022/06/08 13:13:42;;;;;;;4.90;4.45;;;23.90;99.90;;;;;;5062963;28;20211;-72
2022/06/08 13:16:15;;;;;;;7.57;4.75;;;23.90;99.90;;;;;;5063057;28;20236;-72
2022/06/08 13:18:42;;;;;;;6.45;4.75;;;23.80;99.90;;;;;;5064043;28;20206;-71
2022/06/08 13:21:12;;;;;;;5.63;5.13;;;23.80;99.90;;;;;;5065112;28;20695;-72
2022/06/08 13:23:39;;;;;;;6.10;5.40;;;23.70;99.90;;;;;;5071717;28;20212;-72